Archival Weather

Chicago O'Hare International

Chicago, Illinois (KORD)

Report from: Saturday, August 6, 2022 4:51 AM CDT
Current time: Friday, August 19, 2022 1:01 AM CDT

Current weather
Weather history
Weather forecast

Temperature23.3°C (73.9°F)
Dew point21.7°C (71.1°F)
Winds 4 kts (2.1 m/s, 4.6 mph) South-Southwest (200°)
Visibility10 mi. (16.1 km)
Clouds Sky clear
Altimeter30.07 in.Hg (1018 mB)
Relative humidity91 %
Density altitude1,145 ft. (349 m)
Sea-level pressure101.8 kPa (1018 mB, 30.06 in.Hg)
Remarks Automated weather observing station with precipitation discriminator
Flight conditions Visual Meteorological Conditions
Raw dataKORD 060951Z 20004KT 10SM CLR 23/22 A3007 RMK AO2 SLP178 T02330217
An unhandled exception has occurred. See browser dev tools for details. Reload 🗙